Nearby METAR Reports

 

KMSY - New Orleans,Louisiana, USA
Distance from station: E 11.7mi, 18.8km
Updated: Thu, 21-Mar-2019 5:53am CDT
Few Clouds
Few Clouds
 Wind from NNW
Wind: NNW 5 mph , 7 km/h
Temperature: 54°F , 12°C
Dew Point: 45°F , 7°C
Humidity: 72%
Barometer: 30.16 inHg , 1021.3 hPa
Clouds: Few Clouds
Visibility: 10 miles , 16 km
Cloud details: Few Clouds 10000 ft
2019/03/21 10:53 KMSY 211053Z 34004KT 10SM FEW100 12/07 A3016 RMK AO2 SLP217 T01170072
KAPS - Reserve,Louisiana, USA
Distance from station: W 8.4mi, 13.5km
Updated: Thu, 21-Mar-2019 5:35am CDT
Clear
Clear
 Wind from N
Wind: N 3 mph , 6 km/h
Temperature: 48°F , 9°C
Dew Point: 45°F , 7°C
Humidity: 87%
Barometer: 30.17 inHg , 1021.7 hPa
Clouds: Clear
Visibility: 10 miles , 16 km
2019/03/21 10:35 KAPS 211035Z AUTO 01003KT 10SM CLR 09/07 A3017 RMK AO2 T00940067
 
KHDC - Hammond,Louisiana, USA
Distance from station: N 31.5mi, 50.6km
Updated: Thu, 21-Mar-2019 5:35am CDT
Clear
Clear
 Wind from calm
Wind: Calm
Temperature: 41°F , 5°C
Dew Point: 41°F , 5°C
Humidity: 100%
Barometer: 30.16 inHg , 1021.3 hPa
Clouds: Clear
Visibility: 10 miles , 16 km
2019/03/21 10:35 KHDC 211035Z AUTO 00000KT 10SM CLR 05/05 A3016 RMK AO2
KHUM - Houma,Louisiana, USA
Distance from station: SW 36.54mi, 58.8km
Updated: Thu, 21-Mar-2019 5:47am CDT
Clear
Clear
 Wind from NNW
Wind: NNW 5 mph , 7 km/h
Temperature: 48°F , 9°C
Wind Chill: 46°F , 8°C
Dew Point: 45°F , 7°C
Humidity: 87%
Barometer: 30.16 inHg , 1021.3 hPa
Clouds: Clear
Visibility: 7 miles , 11 km
2019/03/21 10:47 KHUM 211047Z 34004KT 7SM CLR 09/07 A3016